Key Field
KMEI : now visible

Airfield :











YOU CAN JOIN US ON...

 
LOGIN :

Register | Disclaimer

   EN    FR    IT 

 









Legend :    VFR   Marginal VFR   IFR   Intensive IFR   Very Intensive IFR
Visi :
Ceiling :
>= 8 km
>= 3000ft
5 to 8 km
1000 to 3000 ft
1500m to 5 km
500 to 1000 ft
800 to 1500m
200 to 500 ft
< 800m
< 200 ft
Symbols :   Thunderstorms  Fog  Heavy snow  Heavy precipitations  Wind > 20 kt







- Airport Elevation : 297 ft
- IATA code : MEI


KMEI - Key Field

CURRENT METAR :
  • 181558Z 16019G24KT 10SM FEW031 SCT060 25/18 A2984 RMK AO2 SLP102 T02500178

EXPIRED METARs :
  • 181508Z 17009KT 10SM SCT020 BKN055 24/18 A2987 RMK AO2 T02390183
  • 181458Z 18009KT 10SM FEW020 BKN024 BKN032 23/18 A2988 RMK AO2 SLP113 T02330178 50003
  • 181420Z 18007KT 10SM SCT015 BKN020 BKN032 22/18 A2988 RMK AO2 T02220183
  • 181358Z 17008KT 10SM SCT015 BKN033 22/18 A2989 RMK AO2 SLP118 T02170183
  • 181305Z 18005KT 10SM FEW019 BKN037 OVC048 21/18 A2991 RMK AO2 T02060178

TAF KMEI
Valid from the 18 at 12:00 until the 19 at 12:00 UTC


181120Z 1812/1912 18007KT P6SM BKN010
FM181500 17014G22KT P6SM BKN035
FM182100 18023G30KT P6SM VCTS OVC020CB
FM182200 20040G50KT 1SM +TSRA BR OVC015CB
FM190000 27025G33KT 4SM RA BR OVC007
FM190400 32015G23KT P6SM OVC015
KZME FIR / North America



MET'MAP, your aeronautical weather chart ! - Copyright ORBIFLY December 2007 - Disclaimer

ORBIFLY MET'MAP TEAM :

Programming & Development : Alexandra Zaïnal
Concept & Development : Baudouin d'Aumeries
Co-Development & Prog : Marc-Olivier Méhu
Technical & hardware support : Manuel Goepfert

Contact : metmap@orbifly.com




SOURCES & CREDITS :

   NOAA       Earth
Advisory